sensor_id;sensor_type;location;lat;lon;timestamp;temperature;humidity
652;DHT22;310;48.490;9.200;2023-08-21T00:01:01;27.60;44.00
652;DHT22;310;48.490;9.200;2023-08-21T00:03:27;27.50;44.90
652;DHT22;310;48.490;9.200;2023-08-21T00:05:53;27.50;44.40
652;DHT22;310;48.490;9.200;2023-08-21T00:08:18;27.60;44.30
652;DHT22;310;48.490;9.200;2023-08-21T00:10:44;27.70;43.20
652;DHT22;310;48.490;9.200;2023-08-21T00:13:09;27.80;43.10
652;DHT22;310;48.490;9.200;2023-08-21T00:15:37;27.80;43.00
652;DHT22;310;48.490;9.200;2023-08-21T00:18:02;27.50;45.10
652;DHT22;310;48.490;9.200;2023-08-21T00:20:28;27.40;44.70
652;DHT22;310;48.490;9.200;2023-08-21T00:22:53;27.50;44.50
652;DHT22;310;48.490;9.200;2023-08-21T00:25:21;27.40;44.80
652;DHT22;310;48.490;9.200;2023-08-21T00:27:47;27.20;45.30
652;DHT22;310;48.490;9.200;2023-08-21T00:32:41;27.10;47.10
652;DHT22;310;48.490;9.200;2023-08-21T00:37:32;27.30;45.20
652;DHT22;310;48.490;9.200;2023-08-21T00:39:58;27.30;44.90
652;DHT22;310;48.490;9.200;2023-08-21T00:42:23;27.20;45.90
652;DHT22;310;48.490;9.200;2023-08-21T00:49:42;26.90;47.00
652;DHT22;310;48.490;9.200;2023-08-21T00:52:12;26.90;48.10
652;DHT22;310;48.490;9.200;2023-08-21T00:54:38;26.80;47.00
652;DHT22;310;48.490;9.200;2023-08-21T00:57:04;27.00;46.10
652;DHT22;310;48.490;9.200;2023-08-21T00:59:30;27.00;46.10
652;DHT22;310;48.490;9.200;2023-08-21T01:06:51;26.80;47.40
652;DHT22;310;48.490;9.200;2023-08-21T01:09:39;27.00;46.50
652;DHT22;310;48.490;9.200;2023-08-21T01:15:02;26.90;47.00
652;DHT22;310;48.490;9.200;2023-08-21T01:17:29;26.80;47.60
652;DHT22;310;48.490;9.200;2023-08-21T01:19:55;26.80;48.30
652;DHT22;310;48.490;9.200;2023-08-21T01:22:34;26.80;47.00
652;DHT22;310;48.490;9.200;2023-08-21T01:29:52;26.70;46.90
652;DHT22;310;48.490;9.200;2023-08-21T01:32:29;26.90;47.00
652;DHT22;310;48.490;9.200;2023-08-21T01:34:58;26.90;46.80
652;DHT22;310;48.490;9.200;2023-08-21T01:37:26;26.80;47.00
652;DHT22;310;48.490;9.200;2023-08-21T01:39:52;26.70;46.90
652;DHT22;310;48.490;9.200;2023-08-21T01:42:17;26.70;47.50
652;DHT22;310;48.490;9.200;2023-08-21T01:44:43;26.80;47.00
652;DHT22;310;48.490;9.200;2023-08-21T01:47:11;26.80;46.70
652;DHT22;310;48.490;9.200;2023-08-21T01:49:37;26.90;46.60
652;DHT22;310;48.490;9.200;2023-08-21T01:52:03;26.80;47.00
652;DHT22;310;48.490;9.200;2023-08-21T01:56:54;26.70;47.70
652;DHT22;310;48.490;9.200;2023-08-21T01:59:21;26.60;48.00
652;DHT22;310;48.490;9.200;2023-08-21T02:04:12;26.50;48.70
652;DHT22;310;48.490;9.200;2023-08-21T02:06:38;26.40;49.10
652;DHT22;310;48.490;9.200;2023-08-21T02:09:03;26.30;48.70
652;DHT22;310;48.490;9.200;2023-08-21T02:23:39;26.30;47.90
652;DHT22;310;48.490;9.200;2023-08-21T02:26:05;26.20;48.90
652;DHT22;310;48.490;9.200;2023-08-21T02:28:30;26.20;49.00
652;DHT22;310;48.490;9.200;2023-08-21T02:30:56;26.30;47.90
652;DHT22;310;48.490;9.200;2023-08-21T02:43:05;26.20;48.90
652;DHT22;310;48.490;9.200;2023-08-21T02:45:31;26.10;48.90
652;DHT22;310;48.490;9.200;2023-08-21T02:47:56;26.10;49.50
652;DHT22;310;48.490;9.200;2023-08-21T02:55:14;26.10;48.90
652;DHT22;310;48.490;9.200;2023-08-21T02:57:41;26.30;48.00
652;DHT22;310;48.490;9.200;2023-08-21T03:00:07;26.20;48.60
652;DHT22;310;48.490;9.200;2023-08-21T03:05:04;26.20;48.50
652;DHT22;310;48.490;9.200;2023-08-21T03:07:29;26.30;47.60
652;DHT22;310;48.490;9.200;2023-08-21T03:09:55;26.20;48.90
652;DHT22;310;48.490;9.200;2023-08-21T03:12:21;26.00;48.80
652;DHT22;310;48.490;9.200;2023-08-21T03:17:12;26.00;49.30
652;DHT22;310;48.490;9.200;2023-08-21T03:19:38;26.00;49.50
652;DHT22;310;48.490;9.200;2023-08-21T03:22:03;25.90;49.70
652;DHT22;310;48.490;9.200;2023-08-21T03:24:29;25.80;50.40
652;DHT22;310;48.490;9.200;2023-08-21T03:31:49;25.80;50.40
652;DHT22;310;48.490;9.200;2023-08-21T03:41:33;25.70;50.10
652;DHT22;310;48.490;9.200;2023-08-21T03:43:58;25.80;51.00
652;DHT22;310;48.490;9.200;2023-08-21T03:46:24;25.90;50.10
652;DHT22;310;48.490;9.200;2023-08-21T03:48:50;25.80;50.60
652;DHT22;310;48.490;9.200;2023-08-21T03:51:16;25.80;50.70
652;DHT22;310;48.490;9.200;2023-08-21T03:53:41;25.80;49.90
652;DHT22;310;48.490;9.200;2023-08-21T03:56:07;25.70;50.80
652;DHT22;310;48.490;9.200;2023-08-21T03:58:33;25.80;50.60
652;DHT22;310;48.490;9.200;2023-08-21T04:00:59;25.70;50.40
652;DHT22;310;48.490;9.200;2023-08-21T04:03:24;25.70;50.50
652;DHT22;310;48.490;9.200;2023-08-21T04:05:52;25.70;50.70
652;DHT22;310;48.490;9.200;2023-08-21T04:08:18;25.80;49.90
652;DHT22;310;48.490;9.200;2023-08-21T04:10:43;25.80;50.50
652;DHT22;310;48.490;9.200;2023-08-21T04:13:09;26.00;49.40
652;DHT22;310;48.490;9.200;2023-08-21T04:15:35;26.10;48.60
652;DHT22;310;48.490;9.200;2023-08-21T04:18:00;26.00;48.90
652;DHT22;310;48.490;9.200;2023-08-21T04:20:26;26.00;49.30
652;DHT22;310;48.490;9.200;2023-08-21T04:22:51;26.00;48.90
652;DHT22;310;48.490;9.200;2023-08-21T04:25:17;25.80;50.10
652;DHT22;310;48.490;9.200;2023-08-21T04:27:43;25.70;50.40
652;DHT22;310;48.490;9.200;2023-08-21T04:30:10;25.70;50.60
652;DHT22;310;48.490;9.200;2023-08-21T04:32:35;25.60;50.80
652;DHT22;310;48.490;9.200;2023-08-21T04:35:01;25.70;50.20
652;DHT22;310;48.490;9.200;2023-08-21T04:37:26;25.70;50.40
652;DHT22;310;48.490;9.200;2023-08-21T04:39:53;25.80;52.50
652;DHT22;310;48.490;9.200;2023-08-21T04:42:18;25.60;51.80
652;DHT22;310;48.490;9.200;2023-08-21T04:44:44;25.50;52.20
652;DHT22;310;48.490;9.200;2023-08-21T04:47:26;25.50;51.70
652;DHT22;310;48.490;9.200;2023-08-21T04:49:53;25.50;52.30
652;DHT22;310;48.490;9.200;2023-08-21T04:52:22;25.50;51.70
652;DHT22;310;48.490;9.200;2023-08-21T04:54:48;25.60;52.00
652;DHT22;310;48.490;9.200;2023-08-21T04:57:15;25.60;51.30
652;DHT22;310;48.490;9.200;2023-08-21T04:59:40;25.60;51.60
652;DHT22;310;48.490;9.200;2023-08-21T05:02:06;25.60;52.00
652;DHT22;310;48.490;9.200;2023-08-21T05:04:33;25.50;52.70
652;DHT22;310;48.490;9.200;2023-08-21T05:06:59;25.70;52.30
652;DHT22;310;48.490;9.200;2023-08-21T05:09:25;25.60;52.10
652;DHT22;310;48.490;9.200;2023-08-21T05:11:51;25.70;51.90
652;DHT22;310;48.490;9.200;2023-08-21T05:14:16;25.80;51.60
652;DHT22;310;48.490;9.200;2023-08-21T05:16:45;25.80;51.90
652;DHT22;310;48.490;9.200;2023-08-21T05:19:10;25.80;52.20
652;DHT22;310;48.490;9.200;2023-08-21T05:21:36;25.80;51.80
652;DHT22;310;48.490;9.200;2023-08-21T05:24:01;26.10;50.50
652;DHT22;310;48.490;9.200;2023-08-21T05:26:27;26.20;50.00
652;DHT22;310;48.490;9.200;2023-08-21T05:28:53;26.30;49.40
652;DHT22;310;48.490;9.200;2023-08-21T05:31:18;26.20;50.20
652;DHT22;310;48.490;9.200;2023-08-21T05:33:44;26.10;50.20
652;DHT22;310;48.490;9.200;2023-08-21T05:36:10;26.20;50.00
652;DHT22;310;48.490;9.200;2023-08-21T05:38:36;26.30;49.60
652;DHT22;310;48.490;9.200;2023-08-21T05:41:01;26.40;49.50
652;DHT22;310;48.490;9.200;2023-08-21T05:43:27;26.40;49.30
652;DHT22;310;48.490;9.200;2023-08-21T05:45:53;26.60;49.10
652;DHT22;310;48.490;9.200;2023-08-21T05:48:18;26.80;48.00
652;DHT22;310;48.490;9.200;2023-08-21T05:50:44;26.80;47.80
652;DHT22;310;48.490;9.200;2023-08-21T05:53:09;26.80;48.40
652;DHT22;310;48.490;9.200;2023-08-21T05:55:38;26.70;49.10
652;DHT22;310;48.490;9.200;2023-08-21T05:58:04;26.80;48.80
652;DHT22;310;48.490;9.200;2023-08-21T06:00:29;26.70;47.50
652;DHT22;310;48.490;9.200;2023-08-21T06:02:55;26.20;48.70
652;DHT22;310;48.490;9.200;2023-08-21T06:05:20;25.90;50.30
652;DHT22;310;48.490;9.200;2023-08-21T06:07:46;25.90;51.40
652;DHT22;310;48.490;9.200;2023-08-21T06:10:12;25.80;51.10
652;DHT22;310;48.490;9.200;2023-08-21T06:12:39;25.90;50.90
652;DHT22;310;48.490;9.200;2023-08-21T06:15:06;25.70;51.80
652;DHT22;310;48.490;9.200;2023-08-21T06:17:33;25.80;50.90
652;DHT22;310;48.490;9.200;2023-08-21T06:19:59;25.60;52.20
652;DHT22;310;48.490;9.200;2023-08-21T06:22:25;25.40;53.70
652;DHT22;310;48.490;9.200;2023-08-21T06:24:50;25.60;54.10
652;DHT22;310;48.490;9.200;2023-08-21T06:27:16;26.20;52.60
652;DHT22;310;48.490;9.200;2023-08-21T06:29:41;26.70;50.50
652;DHT22;310;48.490;9.200;2023-08-21T06:32:07;27.00;49.70
652;DHT22;310;48.490;9.200;2023-08-21T06:34:33;26.90;47.60
652;DHT22;310;48.490;9.200;2023-08-21T06:36:58;27.10;47.80
652;DHT22;310;48.490;9.200;2023-08-21T06:39:25;27.50;46.00
652;DHT22;310;48.490;9.200;2023-08-21T06:41:51;27.40;45.60
652;DHT22;310;48.490;9.200;2023-08-21T06:44:16;27.10;47.80
652;DHT22;310;48.490;9.200;2023-08-21T06:46:42;27.30;46.40
652;DHT22;310;48.490;9.200;2023-08-21T06:49:07;27.20;46.60
652;DHT22;310;48.490;9.200;2023-08-21T06:51:33;27.20;45.90
652;DHT22;310;48.490;9.200;2023-08-21T06:53:59;27.30;46.60
652;DHT22;310;48.490;9.200;2023-08-21T06:56:24;27.40;47.00
652;DHT22;310;48.490;9.200;2023-08-21T06:58:50;27.80;45.70
652;DHT22;310;48.490;9.200;2023-08-21T07:01:15;27.20;45.80
652;DHT22;310;48.490;9.200;2023-08-21T07:03:41;27.00;47.10
652;DHT22;310;48.490;9.200;2023-08-21T07:06:06;27.30;46.50
652;DHT22;310;48.490;9.200;2023-08-21T07:08:32;27.80;46.10
652;DHT22;310;48.490;9.200;2023-08-21T07:11:02;27.90;44.40
652;DHT22;310;48.490;9.200;2023-08-21T07:13:29;27.50;44.50
652;DHT22;310;48.490;9.200;2023-08-21T07:15:54;27.80;44.10
652;DHT22;310;48.490;9.200;2023-08-21T07:18:20;27.90;44.20
652;DHT22;310;48.490;9.200;2023-08-21T07:20:46;27.20;46.00
652;DHT22;310;48.490;9.200;2023-08-21T07:23:12;27.00;47.70
652;DHT22;310;48.490;9.200;2023-08-21T07:25:37;27.20;46.90
652;DHT22;310;48.490;9.200;2023-08-21T07:28:03;27.90;45.50
652;DHT22;310;48.490;9.200;2023-08-21T07:30:29;28.10;43.20
652;DHT22;310;48.490;9.200;2023-08-21T07:32:55;28.00;43.40
652;DHT22;310;48.490;9.200;2023-08-21T07:35:20;27.50;45.60
652;DHT22;310;48.490;9.200;2023-08-21T07:37:46;27.70;45.10
652;DHT22;310;48.490;9.200;2023-08-21T07:40:12;28.30;43.10
652;DHT22;310;48.490;9.200;2023-08-21T07:42:38;28.40;41.70
652;DHT22;310;48.490;9.200;2023-08-21T07:45:04;28.50;42.40
652;DHT22;310;48.490;9.200;2023-08-21T07:47:30;28.10;43.40
652;DHT22;310;48.490;9.200;2023-08-21T07:49:56;28.20;43.30
652;DHT22;310;48.490;9.200;2023-08-21T07:52:23;28.70;40.60
652;DHT22;310;48.490;9.200;2023-08-21T07:54:52;29.00;40.00
652;DHT22;310;48.490;9.200;2023-08-21T07:57:18;28.90;40.50
652;DHT22;310;48.490;9.200;2023-08-21T07:59:43;28.90;39.90
652;DHT22;310;48.490;9.200;2023-08-21T08:02:09;28.50;41.20
652;DHT22;310;48.490;9.200;2023-08-21T08:04:37;28.10;44.10
652;DHT22;310;48.490;9.200;2023-08-21T08:07:02;28.00;43.60
652;DHT22;310;48.490;9.200;2023-08-21T08:09:28;27.80;43.60
652;DHT22;310;48.490;9.200;2023-08-21T08:11:53;28.60;42.60
652;DHT22;310;48.490;9.200;2023-08-21T08:14:19;29.10;40.60
652;DHT22;310;48.490;9.200;2023-08-21T08:16:44;29.30;39.90
652;DHT22;310;48.490;9.200;2023-08-21T08:19:10;29.40;38.80
652;DHT22;310;48.490;9.200;2023-08-21T08:21:35;29.30;38.90
652;DHT22;310;48.490;9.200;2023-08-21T08:24:02;29.10;40.40
652;DHT22;310;48.490;9.200;2023-08-21T08:26:27;29.10;40.70
652;DHT22;310;48.490;9.200;2023-08-21T08:28:53;29.50;40.30
652;DHT22;310;48.490;9.200;2023-08-21T08:31:19;29.70;37.40
652;DHT22;310;48.490;9.200;2023-08-21T08:33:45;29.60;38.10
652;DHT22;310;48.490;9.200;2023-08-21T08:36:10;30.00;37.80
652;DHT22;310;48.490;9.200;2023-08-21T08:38:36;30.20;37.50
652;DHT22;310;48.490;9.200;2023-08-21T08:41:10;29.50;37.50
652;DHT22;310;48.490;9.200;2023-08-21T08:43:40;29.20;38.20
652;DHT22;310;48.490;9.200;2023-08-21T08:46:07;28.90;39.50
652;DHT22;310;48.490;9.200;2023-08-21T08:48:34;29.30;40.80
652;DHT22;310;48.490;9.200;2023-08-21T08:51:01;29.90;38.30
652;DHT22;310;48.490;9.200;2023-08-21T08:53:27;29.40;37.90
652;DHT22;310;48.490;9.200;2023-08-21T08:55:53;29.20;38.90
652;DHT22;310;48.490;9.200;2023-08-21T08:58:19;29.10;39.90
652;DHT22;310;48.490;9.200;2023-08-21T09:00:44;28.90;40.60
652;DHT22;310;48.490;9.200;2023-08-21T09:03:10;28.90;40.00
652;DHT22;310;48.490;9.200;2023-08-21T09:05:39;29.10;40.20
652;DHT22;310;48.490;9.200;2023-08-21T09:08:10;29.00;40.20
652;DHT22;310;48.490;9.200;2023-08-21T09:10:37;29.20;39.60
652;DHT22;310;48.490;9.200;2023-08-21T09:13:18;29.30;39.20
652;DHT22;310;48.490;9.200;2023-08-21T09:15:49;29.80;38.30
652;DHT22;310;48.490;9.200;2023-08-21T09:18:18;30.20;39.00
652;DHT22;310;48.490;9.200;2023-08-21T09:20:44;30.40;36.00
652;DHT22;310;48.490;9.200;2023-08-21T09:23:13;30.60;35.90
652;DHT22;310;48.490;9.200;2023-08-21T09:25:40;30.60;36.30
652;DHT22;310;48.490;9.200;2023-08-21T09:28:07;31.10;36.00
652;DHT22;310;48.490;9.200;2023-08-21T09:30:46;31.50;33.90
652;DHT22;310;48.490;9.200;2023-08-21T09:33:11;31.90;33.50
652;DHT22;310;48.490;9.200;2023-08-21T09:35:37;31.40;32.80
652;DHT22;310;48.490;9.200;2023-08-21T09:38:03;31.70;34.10
652;DHT22;310;48.490;9.200;2023-08-21T09:40:30;31.90;33.40
652;DHT22;310;48.490;9.200;2023-08-21T09:42:56;32.00;31.90
652;DHT22;310;48.490;9.200;2023-08-21T09:45:23;31.60;32.10
652;DHT22;310;48.490;9.200;2023-08-21T09:47:50;31.90;31.50
652;DHT22;310;48.490;9.200;2023-08-21T09:50:17;32.20;31.90
652;DHT22;310;48.490;9.200;2023-08-21T09:52:45;32.10;31.30
652;DHT22;310;48.490;9.200;2023-08-21T09:55:13;32.30;31.70
652;DHT22;310;48.490;9.200;2023-08-21T09:57:39;32.10;31.90
652;DHT22;310;48.490;9.200;2023-08-21T10:00:07;31.40;32.70
652;DHT22;310;48.490;9.200;2023-08-21T10:02:51;31.80;32.80
652;DHT22;310;48.490;9.200;2023-08-21T10:05:17;32.00;32.50
652;DHT22;310;48.490;9.200;2023-08-21T10:07:45;32.20;31.40
652;DHT22;310;48.490;9.200;2023-08-21T10:10:12;32.10;32.00
652;DHT22;310;48.490;9.200;2023-08-21T10:12:37;31.70;31.80
652;DHT22;310;48.490;9.200;2023-08-21T10:15:03;31.90;31.30
652;DHT22;310;48.490;9.200;2023-08-21T10:17:30;31.40;32.60
652;DHT22;310;48.490;9.200;2023-08-21T10:20:05;31.90;32.80
652;DHT22;310;48.490;9.200;2023-08-21T10:22:48;32.60;31.20
652;DHT22;310;48.490;9.200;2023-08-21T10:25:22;32.90;30.50
652;DHT22;310;48.490;9.200;2023-08-21T10:27:59;33.30;29.30
652;DHT22;310;48.490;9.200;2023-08-21T10:30:28;33.60;29.90
652;DHT22;310;48.490;9.200;2023-08-21T10:32:55;33.20;29.60
652;DHT22;310;48.490;9.200;2023-08-21T10:35:22;33.50;29.30
652;DHT22;310;48.490;9.200;2023-08-21T10:38:10;33.60;28.60
652;DHT22;310;48.490;9.200;2023-08-21T10:40:37;33.60;27.50
652;DHT22;310;48.490;9.200;2023-08-21T10:43:03;33.80;27.60
652;DHT22;310;48.490;9.200;2023-08-21T10:45:30;32.90;29.60
652;DHT22;310;48.490;9.200;2023-08-21T10:47:57;33.50;29.40
652;DHT22;310;48.490;9.200;2023-08-21T10:50:23;33.80;27.60
652;DHT22;310;48.490;9.200;2023-08-21T10:52:51;33.80;27.60
652;DHT22;310;48.490;9.200;2023-08-21T10:55:18;33.80;26.70
652;DHT22;310;48.490;9.200;2023-08-21T10:57:46;33.70;27.90
652;DHT22;310;48.490;9.200;2023-08-21T11:00:14;33.90;27.60
652;DHT22;310;48.490;9.200;2023-08-21T11:02:42;34.10;27.40
652;DHT22;310;48.490;9.200;2023-08-21T11:05:09;34.00;26.70
652;DHT22;310;48.490;9.200;2023-08-21T11:10:10;32.90;28.70
652;DHT22;310;48.490;9.200;2023-08-21T11:12:36;32.70;29.00
652;DHT22;310;48.490;9.200;2023-08-21T11:15:03;32.90;27.70
652;DHT22;310;48.490;9.200;2023-08-21T11:17:29;32.80;28.50
652;DHT22;310;48.490;9.200;2023-08-21T11:19:55;33.20;28.60
652;DHT22;310;48.490;9.200;2023-08-21T11:22:28;34.00;26.70
652;DHT22;310;48.490;9.200;2023-08-21T11:24:54;34.50;27.10
652;DHT22;310;48.490;9.200;2023-08-21T11:27:20;34.60;26.40
652;DHT22;310;48.490;9.200;2023-08-21T11:29:49;34.50;26.20
652;DHT22;310;48.490;9.200;2023-08-21T11:32:20;35.10;26.00
652;DHT22;310;48.490;9.200;2023-08-21T11:34:55;35.60;25.50
652;DHT22;310;48.490;9.200;2023-08-21T11:37:25;36.00;24.10
652;DHT22;310;48.490;9.200;2023-08-21T11:39:57;36.50;23.90
652;DHT22;310;48.490;9.200;2023-08-21T11:42:29;35.60;22.40
652;DHT22;310;48.490;9.200;2023-08-21T11:44:56;35.70;23.50
652;DHT22;310;48.490;9.200;2023-08-21T11:47:23;36.10;22.30
652;DHT22;310;48.490;9.200;2023-08-21T11:49:49;36.60;24.60
652;DHT22;310;48.490;9.200;2023-08-21T11:52:23;37.30;22.60
652;DHT22;310;48.490;9.200;2023-08-21T11:54:53;37.40;21.90
652;DHT22;310;48.490;9.200;2023-08-21T11:57:20;37.90;21.00
652;DHT22;310;48.490;9.200;2023-08-21T11:59:53;37.60;20.60
652;DHT22;310;48.490;9.200;2023-08-21T12:02:25;38.50;19.90
652;DHT22;310;48.490;9.200;2023-08-21T12:05:00;39.00;19.40
652;DHT22;310;48.490;9.200;2023-08-21T12:07:26;39.60;18.90
652;DHT22;310;48.490;9.200;2023-08-21T12:09:52;39.30;18.30
652;DHT22;310;48.490;9.200;2023-08-21T12:12:17;37.60;19.50
652;DHT22;310;48.490;9.200;2023-08-21T12:14:43;36.30;21.10
652;DHT22;310;48.490;9.200;2023-08-21T12:17:09;36.30;21.30
652;DHT22;310;48.490;9.200;2023-08-21T12:19:34;36.80;21.30
652;DHT22;310;48.490;9.200;2023-08-21T12:22:00;37.10;21.00
652;DHT22;310;48.490;9.200;2023-08-21T12:24:26;38.50;18.60
652;DHT22;310;48.490;9.200;2023-08-21T12:26:51;38.60;19.50
652;DHT22;310;48.490;9.200;2023-08-21T12:29:17;39.10;18.70
652;DHT22;310;48.490;9.200;2023-08-21T12:31:43;38.80;19.00
652;DHT22;310;48.490;9.200;2023-08-21T12:34:08;37.10;19.10
652;DHT22;310;48.490;9.200;2023-08-21T12:36:35;36.90;19.70
652;DHT22;310;48.490;9.200;2023-08-21T12:41:29;36.50;21.10
652;DHT22;310;48.490;9.200;2023-08-21T12:43:54;37.30;21.20
652;DHT22;310;48.490;9.200;2023-08-21T12:46:20;38.10;19.30
652;DHT22;310;48.490;9.200;2023-08-21T12:48:46;39.10;19.70
652;DHT22;310;48.490;9.200;2023-08-21T12:51:11;39.70;18.10
652;DHT22;310;48.490;9.200;2023-08-21T12:53:37;40.20;17.00
652;DHT22;310;48.490;9.200;2023-08-21T12:56:03;38.80;16.40
652;DHT22;310;48.490;9.200;2023-08-21T12:58:29;38.40;17.70
652;DHT22;310;48.490;9.200;2023-08-21T13:00:55;39.10;17.40
652;DHT22;310;48.490;9.200;2023-08-21T13:03:20;37.50;17.80
652;DHT22;310;48.490;9.200;2023-08-21T13:05:46;37.40;18.10
652;DHT22;310;48.490;9.200;2023-08-21T13:08:12;36.00;19.50
652;DHT22;310;48.490;9.200;2023-08-21T13:10:37;36.00;20.10
652;DHT22;310;48.490;9.200;2023-08-21T13:13:03;35.40;20.50
652;DHT22;310;48.490;9.200;2023-08-21T13:15:29;35.50;21.00
652;DHT22;310;48.490;9.200;2023-08-21T13:17:54;35.00;21.30
652;DHT22;310;48.490;9.200;2023-08-21T13:20:20;35.60;22.70
652;DHT22;310;48.490;9.200;2023-08-21T13:22:46;36.70;20.90
652;DHT22;310;48.490;9.200;2023-08-21T13:25:14;36.70;20.50
652;DHT22;310;48.490;9.200;2023-08-21T13:27:40;36.30;19.90
652;DHT22;310;48.490;9.200;2023-08-21T13:30:06;35.90;21.30
652;DHT22;310;48.490;9.200;2023-08-21T13:32:32;36.50;22.60
652;DHT22;310;48.490;9.200;2023-08-21T13:34:57;36.50;19.80
652;DHT22;310;48.490;9.200;2023-08-21T13:37:23;35.70;20.60
652;DHT22;310;48.490;9.200;2023-08-21T13:39:49;36.40;21.60
652;DHT22;310;48.490;9.200;2023-08-21T13:42:14;36.50;21.90
652;DHT22;310;48.490;9.200;2023-08-21T13:44:40;37.20;20.20
652;DHT22;310;48.490;9.200;2023-08-21T13:47:05;37.20;19.90
652;DHT22;310;48.490;9.200;2023-08-21T13:49:31;37.60;20.60
652;DHT22;310;48.490;9.200;2023-08-21T13:51:57;37.90;18.30
652;DHT22;310;48.490;9.200;2023-08-21T13:54:22;37.50;16.30
652;DHT22;310;48.490;9.200;2023-08-21T13:56:48;37.50;17.10
652;DHT22;310;48.490;9.200;2023-08-21T13:59:14;36.80;18.70
652;DHT22;310;48.490;9.200;2023-08-21T14:01:39;37.10;18.00
652;DHT22;310;48.490;9.200;2023-08-21T14:04:05;37.40;17.70
652;DHT22;310;48.490;9.200;2023-08-21T14:06:30;37.00;17.50
652;DHT22;310;48.490;9.200;2023-08-21T14:08:56;36.80;18.50
652;DHT22;310;48.490;9.200;2023-08-21T14:11:21;35.70;19.60
652;DHT22;310;48.490;9.200;2023-08-21T14:13:47;35.90;19.50
652;DHT22;310;48.490;9.200;2023-08-21T14:16:12;35.80;19.20
652;DHT22;310;48.490;9.200;2023-08-21T14:18:38;35.20;19.00
652;DHT22;310;48.490;9.200;2023-08-21T14:21:04;35.00;20.40
652;DHT22;310;48.490;9.200;2023-08-21T14:23:30;35.70;19.00
652;DHT22;310;48.490;9.200;2023-08-21T14:25:55;35.80;19.40
652;DHT22;310;48.490;9.200;2023-08-21T14:28:21;36.50;20.30
652;DHT22;310;48.490;9.200;2023-08-21T14:30:46;35.90;18.50
652;DHT22;310;48.490;9.200;2023-08-21T14:35:38;35.20;20.00
652;DHT22;310;48.490;9.200;2023-08-21T14:38:04;35.20;21.00
652;DHT22;310;48.490;9.200;2023-08-21T14:40:29;35.80;19.50
652;DHT22;310;48.490;9.200;2023-08-21T14:42:55;35.80;20.10
652;DHT22;310;48.490;9.200;2023-08-21T14:45:20;36.10;19.60
652;DHT22;310;48.490;9.200;2023-08-21T14:47:46;35.80;18.80
652;DHT22;310;48.490;9.200;2023-08-21T14:50:12;35.70;19.60
652;DHT22;310;48.490;9.200;2023-08-21T14:52:37;35.30;20.40
652;DHT22;310;48.490;9.200;2023-08-21T14:55:03;35.10;19.90
652;DHT22;310;48.490;9.200;2023-08-21T14:57:29;34.80;20.10
652;DHT22;310;48.490;9.200;2023-08-21T14:59:55;35.40;20.40
652;DHT22;310;48.490;9.200;2023-08-21T15:02:20;36.00;18.80
652;DHT22;310;48.490;9.200;2023-08-21T15:04:46;35.70;19.70
652;DHT22;310;48.490;9.200;2023-08-21T15:07:11;35.70;20.30
652;DHT22;310;48.490;9.200;2023-08-21T15:09:37;34.70;20.60
652;DHT22;310;48.490;9.200;2023-08-21T15:12:03;34.60;21.10
652;DHT22;310;48.490;9.200;2023-08-21T15:14:28;34.70;21.00
652;DHT22;310;48.490;9.200;2023-08-21T15:16:54;34.70;21.70
652;DHT22;310;48.490;9.200;2023-08-21T15:19:19;35.60;21.70
652;DHT22;310;48.490;9.200;2023-08-21T15:21:45;36.10;20.20
652;DHT22;310;48.490;9.200;2023-08-21T15:24:11;36.70;19.30
652;DHT22;310;48.490;9.200;2023-08-21T15:26:36;36.70;19.40
652;DHT22;310;48.490;9.200;2023-08-21T15:29:02;36.50;20.50
652;DHT22;310;48.490;9.200;2023-08-21T15:31:28;36.60;20.30
652;DHT22;310;48.490;9.200;2023-08-21T15:36:20;36.60;19.80
652;DHT22;310;48.490;9.200;2023-08-21T15:38:45;36.60;20.30
652;DHT22;310;48.490;9.200;2023-08-21T15:41:11;36.40;20.10
652;DHT22;310;48.490;9.200;2023-08-21T15:43:36;36.40;19.90
652;DHT22;310;48.490;9.200;2023-08-21T15:46:05;36.60;20.90
652;DHT22;310;48.490;9.200;2023-08-21T15:48:31;36.40;19.80
652;DHT22;310;48.490;9.200;2023-08-21T15:50:56;36.20;19.80
652;DHT22;310;48.490;9.200;2023-08-21T15:53:22;36.40;21.20
652;DHT22;310;48.490;9.200;2023-08-21T15:55:48;36.50;19.00
652;DHT22;310;48.490;9.200;2023-08-21T15:58:13;36.50;18.60
652;DHT22;310;48.490;9.200;2023-08-21T16:00:39;36.50;19.50
652;DHT22;310;48.490;9.200;2023-08-21T16:03:05;36.60;20.50
652;DHT22;310;48.490;9.200;2023-08-21T16:05:30;36.60;19.70
652;DHT22;310;48.490;9.200;2023-08-21T16:07:56;36.50;20.10
652;DHT22;310;48.490;9.200;2023-08-21T16:10:22;36.50;20.50
652;DHT22;310;48.490;9.200;2023-08-21T16:12:48;36.30;20.30
652;DHT22;310;48.490;9.200;2023-08-21T16:15:13;36.50;19.90
652;DHT22;310;48.490;9.200;2023-08-21T16:17:39;36.20;19.20
652;DHT22;310;48.490;9.200;2023-08-21T16:20:05;35.60;21.10
652;DHT22;310;48.490;9.200;2023-08-21T16:22:33;35.50;21.30
652;DHT22;310;48.490;9.200;2023-08-21T16:24:59;35.80;20.70
652;DHT22;310;48.490;9.200;2023-08-21T16:27:27;35.90;20.50
652;DHT22;310;48.490;9.200;2023-08-21T16:29:52;36.20;21.20
652;DHT22;310;48.490;9.200;2023-08-21T16:32:18;35.90;20.50
652;DHT22;310;48.490;9.200;2023-08-21T16:34:43;35.80;19.90
652;DHT22;310;48.490;9.200;2023-08-21T16:37:09;35.80;20.60
652;DHT22;310;48.490;9.200;2023-08-21T16:39:35;35.40;21.50
652;DHT22;310;48.490;9.200;2023-08-21T16:42:00;35.80;20.20
652;DHT22;310;48.490;9.200;2023-08-21T16:44:26;35.90;20.40
652;DHT22;310;48.490;9.200;2023-08-21T16:46:51;35.90;21.00
652;DHT22;310;48.490;9.200;2023-08-21T16:49:17;36.00;20.00
652;DHT22;310;48.490;9.200;2023-08-21T16:51:42;36.20;20.30
652;DHT22;310;48.490;9.200;2023-08-21T16:54:08;36.30;20.20
652;DHT22;310;48.490;9.200;2023-08-21T16:56:34;36.30;21.10
652;DHT22;310;48.490;9.200;2023-08-21T16:59:00;36.40;20.00
652;DHT22;310;48.490;9.200;2023-08-21T17:01:25;36.50;20.60
652;DHT22;310;48.490;9.200;2023-08-21T17:03:51;36.40;20.80
652;DHT22;310;48.490;9.200;2023-08-21T17:06:16;36.40;20.30
652;DHT22;310;48.490;9.200;2023-08-21T17:08:42;36.10;19.50
652;DHT22;310;48.490;9.200;2023-08-21T17:11:08;36.00;20.20
652;DHT22;310;48.490;9.200;2023-08-21T17:13:33;35.60;20.80
652;DHT22;310;48.490;9.200;2023-08-21T17:15:59;35.20;21.30
652;DHT22;310;48.490;9.200;2023-08-21T17:18:25;35.20;21.40
652;DHT22;310;48.490;9.200;2023-08-21T17:20:50;34.60;21.30
652;DHT22;310;48.490;9.200;2023-08-21T17:25:42;34.30;22.80
652;DHT22;310;48.490;9.200;2023-08-21T17:28:08;34.40;21.80
652;DHT22;310;48.490;9.200;2023-08-21T17:30:34;34.40;22.90
652;DHT22;310;48.490;9.200;2023-08-21T17:33:01;34.70;23.50
652;DHT22;310;48.490;9.200;2023-08-21T17:35:26;34.70;22.00
652;DHT22;310;48.490;9.200;2023-08-21T17:37:53;34.80;22.40
652;DHT22;310;48.490;9.200;2023-08-21T17:40:19;34.90;22.00
652;DHT22;310;48.490;9.200;2023-08-21T17:42:45;34.80;21.50
652;DHT22;310;48.490;9.200;2023-08-21T17:45:10;34.90;22.20
652;DHT22;310;48.490;9.200;2023-08-21T17:47:36;34.60;21.40
652;DHT22;310;48.490;9.200;2023-08-21T17:50:01;34.60;21.80
652;DHT22;310;48.490;9.200;2023-08-21T17:52:27;34.50;22.20